createdAt,value
2024-03-03T00:00:01.500Z,102821.91
2024-03-03T00:01:04.047Z,104155.00
2024-03-03T00:02:06.624Z,103144.69
2024-03-03T00:03:08.915Z,99160.59
2024-03-03T00:04:12.002Z,97192.44
2024-03-03T00:05:14.687Z,96858.72
2024-03-03T00:06:17.084Z,92886.16
2024-03-03T00:07:19.332Z,87270.47
2024-03-03T00:08:23.533Z,88929.59
2024-03-03T00:09:25.854Z,86619.41
2024-03-03T00:10:28.061Z,88931.03
2024-03-03T00:11:30.320Z,86622.88
2024-03-03T00:12:32.558Z,83646.16
2024-03-03T00:13:34.728Z,81330.81
2024-03-03T00:14:36.965Z,79037.66
2024-03-03T00:15:39.316Z,79694.59
2024-03-03T00:16:44.764Z,73789.31
2024-03-03T00:17:47.135Z,75085.75
2024-03-03T00:18:49.350Z,72118.91
2024-03-03T00:19:51.603Z,69499.38
2024-03-03T00:20:53.808Z,69820.41
2024-03-03T00:21:56.192Z,66538.03
2024-03-03T00:22:58.382Z,64898.41
2024-03-03T00:24:00.896Z,64249.94
2024-03-03T00:25:03.982Z,63270.56
2024-03-03T00:26:06.196Z,63923.13
2024-03-03T00:27:08.489Z,63267.03
2024-03-03T00:28:11.362Z,62938.78
2024-03-03T00:29:15.501Z,63269.56
2024-03-03T00:30:17.725Z,61628.06
2024-03-03T00:31:20.315Z,61958.66
2024-03-03T00:32:22.620Z,59659.03
2024-03-03T00:33:25.099Z,59334.44
2024-03-03T00:34:27.331Z,58344.84
2024-03-03T00:35:29.610Z,56063.25
2024-03-03T00:36:31.764Z,57382.16
2024-03-03T00:37:33.977Z,58682.41
2024-03-03T00:38:37.501Z,56069.94
2024-03-03T00:39:39.718Z,59352.31
2024-03-03T00:40:42.253Z,59013.56
2024-03-03T00:41:44.467Z,58362.44
2024-03-03T00:42:46.707Z,57700.38
2024-03-03T00:43:48.932Z,56723.94
2024-03-03T00:44:51.155Z,55733.47
2024-03-03T00:45:53.364Z,54757.38
2024-03-03T00:46:55.643Z,54434.63
2024-03-03T00:47:58.005Z,54425.59
2024-03-03T00:49:00.260Z,52460.22
2024-03-03T00:50:02.601Z,51481.47
2024-03-03T00:51:04.897Z,50504.06
2024-03-03T00:52:07.190Z,49530.72
2024-03-03T00:53:10.097Z,51813.16
2024-03-03T00:54:12.415Z,51821.72
2024-03-03T00:55:14.721Z,54111.84
2024-03-03T00:56:16.910Z,52139.56
2024-03-03T00:57:19.558Z,51158.75
2024-03-03T00:58:21.995Z,49522.16
2024-03-03T00:59:24.720Z,49197.09
2024-03-03T01:00:26.906Z,49193.22
2024-03-03T01:01:29.153Z,47564.09
2024-03-03T01:02:31.366Z,47894.69
2024-03-03T01:03:33.615Z,48217.44
2024-03-03T01:04:35.959Z,49203.28
2024-03-03T01:05:38.115Z,50503.28
2024-03-03T01:06:40.320Z,46900.94
2024-03-03T01:07:43.481Z,45931.81
2024-03-03T01:08:45.915Z,46253.78
2024-03-03T01:09:48.177Z,45268.94
2024-03-03T01:10:50.769Z,43311.31
2024-03-03T01:11:55.279Z,42334.03
2024-03-03T01:12:57.896Z,42663.97
2024-03-03T01:14:00.168Z,44293.63
2024-03-03T01:15:02.360Z,43307.59
2024-03-03T01:16:05.246Z,40053.13
2024-03-03T01:17:07.596Z,40050.00
2024-03-03T01:18:09.824Z,40375.75
2024-03-03T01:19:12.087Z,40703.75
2024-03-03T01:20:14.611Z,39724.63
2024-03-03T01:21:16.976Z,39071.16
2024-03-03T01:22:19.331Z,37771.19
2024-03-03T01:23:21.608Z,37772.06
2024-03-03T01:24:23.942Z,38096.75
2024-03-03T01:25:27.722Z,39397.41
2024-03-03T01:26:30.067Z,39074.78
2024-03-03T01:27:32.330Z,38427.09
2024-03-03T01:28:34.530Z,40382.03
2024-03-03T01:29:36.711Z,39073.56
2024-03-03T01:30:38.995Z,38746.72
2024-03-03T01:31:42.670Z,39403.50
2024-03-03T01:32:44.915Z,39074.78
2024-03-03T01:33:47.235Z,38091.44
2024-03-03T01:34:50.441Z,35817.06
2024-03-03T01:35:52.708Z,35812.91
2024-03-03T01:36:55.032Z,34186.38
2024-03-03T01:37:57.295Z,34516.59
2024-03-03T01:38:59.492Z,37448.28
2024-03-03T01:40:01.900Z,37772.97
2024-03-03T01:41:04.682Z,36137.44
2024-03-03T01:42:06.868Z,34184.00
2024-03-03T01:43:09.109Z,33536.81
2024-03-03T01:44:11.349Z,34516.34
2024-03-03T01:45:22.452Z,32574.50
2024-03-03T01:46:25.504Z,36791.00
2024-03-03T01:47:27.934Z,35810.16
2024-03-03T01:48:30.842Z,32560.28
2024-03-03T01:49:36.625Z,32883.81
2024-03-03T01:50:40.125Z,32889.63
2024-03-03T01:51:43.272Z,33213.72
2024-03-03T01:52:47.746Z,33209.66
2024-03-03T01:53:52.268Z,32558.78
2024-03-03T01:54:54.679Z,32559.03
2024-03-03T01:55:58.148Z,32887.84
2024-03-03T01:57:00.787Z,35813.47
2024-03-03T01:58:04.626Z,33530.66
2024-03-03T01:59:09.941Z,30612.13
2024-03-03T02:00:12.783Z,32554.53
2024-03-03T02:01:16.564Z,30283.53
2024-03-03T02:02:19.102Z,31903.16
2024-03-03T02:03:21.563Z,32558.03
2024-03-03T02:04:24.742Z,32878.78
2024-03-03T02:05:28.310Z,30923.81
2024-03-03T02:06:34.994Z,28335.44
2024-03-03T02:07:37.247Z,30273.41
2024-03-03T02:08:39.785Z,29625.38
2024-03-03T02:09:45.563Z,27031.25
2024-03-03T02:10:48.335Z,28650.16
2024-03-03T02:11:50.600Z,29626.03
2024-03-03T02:12:53.062Z,30921.94
2024-03-03T02:13:55.976Z,28001.03
2024-03-03T02:14:58.230Z,28323.44
2024-03-03T02:16:00.794Z,26698.31
2024-03-03T02:17:03.046Z,27348.53
2024-03-03T02:18:05.460Z,26048.47
2024-03-03T02:19:08.018Z,26374.78
2024-03-03T02:20:10.878Z,26055.91
2024-03-03T02:21:13.471Z,27023.72
2024-03-03T02:22:15.977Z,27027.16
2024-03-03T02:23:18.257Z,26697.72
2024-03-03T02:24:20.442Z,25726.16
2024-03-03T02:25:23.004Z,26702.53
2024-03-03T02:26:27.261Z,25732.31
2024-03-03T02:27:29.811Z,27674.63
2024-03-03T02:28:32.697Z,27025.94
2024-03-03T02:29:35.075Z,26697.09
2024-03-03T02:30:37.538Z,25076.50
2024-03-03T02:31:39.760Z,25723.25
2024-03-03T02:32:42.006Z,25073.31
2024-03-03T02:33:44.482Z,24751.19
2024-03-03T02:34:46.674Z,25073.31
2024-03-03T02:35:48.868Z,24101.09
2024-03-03T02:36:51.138Z,24101.81
2024-03-03T02:37:53.382Z,24103.25
2024-03-03T02:38:58.279Z,24103.63
2024-03-03T02:40:00.656Z,25400.72
2024-03-03T02:41:02.921Z,25076.50
2024-03-03T02:42:05.120Z,25402.06
2024-03-03T02:43:09.490Z,24432.13
2024-03-03T02:44:11.954Z,25075.00
2024-03-03T02:45:14.198Z,24097.50
2024-03-03T02:46:16.476Z,22806.97
2024-03-03T02:47:18.712Z,23777.72
2024-03-03T02:48:20.944Z,23135.97
2024-03-03T02:49:23.285Z,24751.56
2024-03-03T02:50:25.504Z,23453.66
2024-03-03T02:51:28.034Z,22806.97
2024-03-03T02:52:30.240Z,23130.31
2024-03-03T02:53:32.527Z,23131.69
2024-03-03T02:54:34.762Z,24101.28
2024-03-03T02:55:36.962Z,23129.28
2024-03-03T02:56:39.270Z,23132.38
2024-03-03T02:57:43.295Z,23456.81
2024-03-03T02:58:45.874Z,23457.69
2024-03-03T02:59:48.109Z,24105.41
2024-03-03T03:00:50.574Z,24107.22
2024-03-03T03:01:53.107Z,24427.03
2024-03-03T03:02:55.416Z,23455.41
2024-03-03T03:03:57.821Z,22484.13
2024-03-03T03:05:00.124Z,23455.06
2024-03-03T03:06:02.368Z,22806.97
2024-03-03T03:07:04.903Z,21835.38
2024-03-03T03:08:07.532Z,22483.47
2024-03-03T03:09:09.768Z,23781.44
2024-03-03T03:10:12.009Z,23458.91
2024-03-03T03:11:15.372Z,23134.25
2024-03-03T03:12:17.582Z,24107.22
2024-03-03T03:13:20.437Z,23779.50
2024-03-03T03:14:25.213Z,23133.22
2024-03-03T03:15:27.462Z,23783.56
2024-03-03T03:16:29.674Z,22806.81
2024-03-03T03:17:32.376Z,22484.31
2024-03-03T03:18:34.641Z,22486.63
2024-03-03T03:19:36.902Z,23459.25
2024-03-03T03:20:39.112Z,23131.34
2024-03-03T03:21:41.324Z,21512.22
2024-03-03T03:22:43.615Z,21836.81
2024-03-03T03:23:45.818Z,22805.78
2024-03-03T03:24:48.030Z,22156.06
2024-03-03T03:25:50.478Z,21184.44
2024-03-03T03:26:52.661Z,21507.31
2024-03-03T03:27:54.896Z,20860.91
2024-03-03T03:28:57.195Z,20536.50
2024-03-03T03:29:59.486Z,19890.03
2024-03-03T03:31:02.161Z,20214.53
2024-03-03T03:32:04.728Z,19564.16
2024-03-03T03:33:08.255Z,18916.06
2024-03-03T03:34:13.621Z,18591.25
2024-03-03T03:35:16.028Z,18267.72
2024-03-03T03:36:19.292Z,17294.66
2024-03-03T03:37:21.558Z,16326.47
2024-03-03T03:38:23.863Z,16325.22
2024-03-03T03:39:26.273Z,16004.50
2024-03-03T03:40:29.945Z,17620.34
2024-03-03T03:41:32.235Z,16973.47
2024-03-03T03:42:34.399Z,16972.75
2024-03-03T03:43:36.581Z,16647.00
2024-03-03T03:44:38.846Z,15677.06
2024-03-03T03:45:41.156Z,14709.66
2024-03-03T03:46:43.746Z,15356.66
2024-03-03T03:47:46.441Z,15679.16
2024-03-03T03:48:48.656Z,15679.38
2024-03-03T03:49:50.825Z,15356.56
2024-03-03T03:50:53.648Z,15357.41
2024-03-03T03:51:56.758Z,16324.63
2024-03-03T03:52:59.044Z,16001.09
2024-03-03T03:54:01.242Z,15031.63
2024-03-03T03:55:04.085Z,15029.72
2024-03-03T03:56:06.954Z,14060.56
2024-03-03T03:57:09.273Z,14062.63
2024-03-03T03:58:11.503Z,14060.38
2024-03-03T03:59:13.744Z,13413.56
2024-03-03T04:00:16.463Z,13416.50
2024-03-03T04:01:20.831Z,13418.34
2024-03-03T04:02:23.174Z,15352.66
2024-03-03T04:03:25.381Z,13739.03
2024-03-03T04:04:28.256Z,13737.31
2024-03-03T04:05:30.437Z,12770.31
2024-03-03T04:06:32.629Z,14386.88
2024-03-03T04:07:34.773Z,14384.78
2024-03-03T04:08:36.971Z,14709.84
2024-03-03T04:09:40.765Z,14707.72
2024-03-03T04:10:43.087Z,14706.38
2024-03-03T04:11:45.415Z,14384.66
2024-03-03T04:12:47.690Z,13738.09
2024-03-03T04:13:51.331Z,12768.84
2024-03-03T04:14:53.550Z,13090.94
2024-03-03T04:15:55.858Z,13736.47
2024-03-03T04:16:58.158Z,12768.13
2024-03-03T04:18:00.510Z,13090.94
2024-03-03T04:19:02.917Z,13090.66
2024-03-03T04:20:06.515Z,12769.78
2024-03-03T04:21:08.891Z,14058.84
2024-03-03T04:22:11.572Z,11799.16
2024-03-03T04:23:13.755Z,12120.97
2024-03-03T04:24:15.946Z,11797.81
2024-03-03T04:25:18.262Z,12120.31
2024-03-03T04:26:20.654Z,11475.00
2024-03-03T04:27:22.950Z,11800.00
2024-03-03T04:28:25.209Z,13091.28
2024-03-03T04:29:27.391Z,14383.25
2024-03-03T04:30:29.583Z,14704.84
2024-03-03T04:31:31.848Z,14057.97
2024-03-03T04:32:34.264Z,13734.59
2024-03-03T04:33:37.698Z,13410.72
2024-03-03T04:34:41.279Z,12765.03
2024-03-03T04:35:43.911Z,12117.56
2024-03-03T04:36:46.612Z,12440.50
2024-03-03T04:37:48.994Z,12442.25
2024-03-03T04:38:51.222Z,13409.34
2024-03-03T04:39:53.615Z,13731.66
2024-03-03T04:40:55.810Z,13730.72
2024-03-03T04:41:58.193Z,12438.66
2024-03-03T04:43:00.393Z,11470.00
2024-03-03T04:44:02.938Z,11147.53
2024-03-03T04:45:07.277Z,10180.78
2024-03-03T04:46:10.514Z,10825.22
2024-03-03T04:47:12.773Z,11791.69
2024-03-03T04:48:14.977Z,10822.97
2024-03-03T04:49:17.452Z,9855.22
2024-03-03T04:50:20.336Z,10178.63
2024-03-03T04:51:22.506Z,11145.78
2024-03-03T04:52:24.793Z,11468.56
2024-03-03T04:53:27.016Z,11790.75
2024-03-03T04:54:29.247Z,11144.75
2024-03-03T04:55:31.570Z,10821.72
2024-03-03T04:56:34.001Z,10499.88
2024-03-03T04:57:36.380Z,10176.47
2024-03-03T04:58:38.686Z,10498.13
2024-03-03T04:59:41.223Z,9530.44
2024-03-03T05:00:44.076Z,8886.38
2024-03-03T05:01:46.412Z,8886.16
2024-03-03T05:02:49.197Z,8564.78
2024-03-03T05:03:51.517Z,8887.09
2024-03-03T05:04:53.718Z,9208.41
2024-03-03T05:05:55.906Z,8886.88
2024-03-03T05:06:58.119Z,9208.53
2024-03-03T05:08:00.292Z,9208.25
2024-03-03T05:09:03.692Z,9208.06
2024-03-03T05:10:07.969Z,7920.03
2024-03-03T05:11:10.319Z,8563.38
2024-03-03T05:12:12.506Z,8241.56
2024-03-03T05:13:14.717Z,8241.56
2024-03-03T05:14:16.972Z,7919.16
2024-03-03T05:15:19.295Z,7918.78
2024-03-03T05:16:21.538Z,7274.09
2024-03-03T05:17:24.305Z,6952.28
2024-03-03T05:18:26.527Z,6629.91
2024-03-03T05:19:29.656Z,5664.75
2024-03-03T05:20:31.950Z,6308.16
2024-03-03T05:21:34.143Z,5664.50
2024-03-03T05:22:37.561Z,5986.47
2024-03-03T05:23:39.763Z,6630.00
2024-03-03T05:24:42.007Z,6308.16
2024-03-03T05:25:44.472Z,5986.41
2024-03-03T05:26:46.660Z,5986.19
2024-03-03T05:27:48.837Z,5020.19
2024-03-03T05:28:51.760Z,4698.59
2024-03-03T05:29:54.021Z,5342.38
2024-03-03T05:30:56.271Z,5342.22
2024-03-03T05:31:58.469Z,5664.28
2024-03-03T05:33:00.688Z,5986.41
2024-03-03T05:34:05.016Z,5664.50
2024-03-03T05:35:07.494Z,5986.53
2024-03-03T05:36:09.734Z,6951.50
2024-03-03T05:37:12.498Z,5663.84
2024-03-03T05:38:16.306Z,5342.22
2024-03-03T05:39:18.695Z,5664.00
2024-03-03T05:40:21.589Z,5341.72
2024-03-03T05:41:30.511Z,3090.22
2024-03-03T05:42:32.818Z,3733.19
2024-03-03T05:43:35.178Z,3733.38
2024-03-03T05:44:37.411Z,4055.16
2024-03-03T05:45:39.618Z,5020.09
2024-03-03T05:46:41.797Z,5341.41
2024-03-03T05:47:44.153Z,3733.13
2024-03-03T05:48:46.369Z,4697.88
2024-03-03T05:49:48.577Z,3411.47
2024-03-03T05:50:50.759Z,3411.44
2024-03-03T05:51:53.145Z,3411.56
2024-03-03T05:52:55.295Z,4054.88
2024-03-03T05:53:57.460Z,3411.47
2024-03-03T05:54:59.868Z,3411.41
2024-03-03T05:56:02.082Z,3411.59
2024-03-03T05:57:04.517Z,4054.84
2024-03-03T05:58:06.847Z,3733.06
2024-03-03T05:59:09.135Z,3411.44
2024-03-03T06:00:12.132Z,2768.41
2024-03-03T06:01:14.633Z,3089.81
2024-03-03T06:02:16.943Z,3733.03
2024-03-03T06:03:19.121Z,3089.88
2024-03-03T06:04:21.428Z,3733.09
2024-03-03T06:05:23.624Z,2768.28
2024-03-03T06:06:26.121Z,2446.88
2024-03-03T06:07:28.423Z,3089.88
2024-03-03T06:08:31.074Z,3732.97
2024-03-03T06:09:33.394Z,3411.63
2024-03-03T06:10:35.634Z,3733.25
2024-03-03T06:11:38.641Z,3733.09
2024-03-03T06:12:40.849Z,4376.28
2024-03-03T06:13:43.065Z,4697.72
2024-03-03T06:14:48.660Z,4375.84
2024-03-03T06:15:50.909Z,3732.63
2024-03-03T06:16:54.030Z,2768.22
2024-03-03T06:17:56.431Z,2768.22
2024-03-03T06:18:58.648Z,2446.81
2024-03-03T06:20:00.911Z,2125.41
2024-03-03T06:21:03.268Z,2125.41
2024-03-03T06:22:05.518Z,2125.38
2024-03-03T06:23:07.701Z,3411.38
2024-03-03T06:24:11.360Z,3733.00
2024-03-03T06:25:13.835Z,4054.31
2024-03-03T06:26:16.446Z,4054.28
2024-03-03T06:27:18.744Z,2768.25
2024-03-03T06:28:21.195Z,3411.22
2024-03-03T06:29:23.508Z,3089.81
2024-03-03T06:30:26.025Z,3089.81
2024-03-03T06:31:28.223Z,3411.41
2024-03-03T06:32:31.136Z,3411.56
2024-03-03T06:33:33.595Z,4376.19
2024-03-03T06:34:35.817Z,4054.69
2024-03-03T06:35:38.116Z,4054.63
2024-03-03T06:36:40.567Z,4054.44
2024-03-03T06:37:44.203Z,2768.31
2024-03-03T06:38:46.948Z,2446.84
2024-03-03T06:39:50.070Z,2768.34
2024-03-03T06:40:52.352Z,3733.13
2024-03-03T06:41:54.619Z,4054.88
2024-03-03T06:42:56.880Z,4376.75
2024-03-03T06:43:59.159Z,4698.09
2024-03-03T06:45:01.633Z,3733.13
2024-03-03T06:46:04.249Z,3411.69
2024-03-03T06:47:06.485Z,3733.66
2024-03-03T06:48:08.758Z,5664.09
2024-03-03T06:49:11.052Z,4698.66
2024-03-03T06:50:13.596Z,5020.38
2024-03-03T06:51:15.881Z,5021.00
2024-03-03T06:52:18.118Z,5986.66
2024-03-03T06:53:20.418Z,6630.25
2024-03-03T06:54:22.605Z,6630.16
2024-03-03T06:55:26.883Z,5343.34
2024-03-03T06:56:30.659Z,5987.56
2024-03-03T06:57:32.874Z,6633.38
2024-03-03T06:58:35.092Z,7280.31
2024-03-03T06:59:39.294Z,10829.19
2024-03-03T07:00:41.624Z,15675.84
2024-03-03T07:01:43.930Z,17617.31
2024-03-03T07:03:03.884Z,20859.06
2024-03-03T07:04:15.113Z,23447.22
2024-03-03T07:05:18.198Z,26053.19
2024-03-03T07:06:20.364Z,31581.16
2024-03-03T07:07:22.641Z,38421.13
2024-03-03T07:08:24.910Z,47210.25
2024-03-03T07:09:27.171Z,43295.09
2024-03-03T07:10:31.158Z,43008.13
2024-03-03T07:11:33.456Z,51187.78
2024-03-03T07:12:35.633Z,60995.16
2024-03-03T07:13:37.814Z,58732.69
2024-03-03T07:14:43.563Z,65581.88
2024-03-03T07:15:46.225Z,69548.25
2024-03-03T07:16:49.079Z,65927.28
2024-03-03T07:17:51.343Z,69515.47
2024-03-03T07:18:53.572Z,63936.34
2024-03-03T07:19:55.855Z,61981.34
2024-03-03T07:20:58.049Z,61649.16
2024-03-03T07:22:00.215Z,64607.09
2024-03-03T07:23:02.428Z,60651.09
2024-03-03T07:24:05.162Z,57090.09
2024-03-03T07:25:08.071Z,62688.81
2024-03-03T07:26:10.349Z,67934.19
2024-03-03T07:27:12.529Z,79809.91
2024-03-03T07:28:14.740Z,87750.03
2024-03-03T07:29:17.020Z,96664.06
2024-03-03T07:30:21.678Z,89413.72
2024-03-03T07:31:25.501Z,107327.75
2024-03-03T07:32:29.866Z,110289.00
2024-03-03T07:33:32.695Z,99082.94
2024-03-03T07:34:34.887Z,113387.97
2024-03-03T07:35:37.106Z,130717.00
2024-03-03T07:36:39.284Z,134785.34
2024-03-03T07:37:41.633Z,141066.81
2024-03-03T07:38:43.824Z,140192.63
2024-03-03T07:39:46.283Z,147896.22
2024-03-03T07:40:48.528Z,145733.06
2024-03-03T07:41:52.747Z,139418.50
2024-03-03T07:42:55.692Z,140091.78
2024-03-03T07:43:57.958Z,137775.88
2024-03-03T07:45:00.294Z,142818.47
2024-03-03T07:46:02.594Z,139730.56
2024-03-03T07:47:04.885Z,122032.34
2024-03-03T07:48:07.803Z,121722.69
2024-03-03T07:49:10.109Z,120996.63
2024-03-03T07:50:12.898Z,110974.22
2024-03-03T07:51:15.259Z,103712.53
2024-03-03T07:52:17.551Z,104381.50
2024-03-03T07:53:19.875Z,91809.59
2024-03-03T07:54:22.055Z,101412.81
2024-03-03T07:55:24.609Z,104677.88
2024-03-03T07:56:27.691Z,95061.41
2024-03-03T07:57:29.905Z,98735.38
2024-03-03T07:58:38.040Z,102403.38
2024-03-03T07:59:40.604Z,109065.47
2024-03-03T08:00:43.666Z,111422.31
2024-03-03T08:01:46.103Z,114423.69
2024-03-03T08:02:48.323Z,119437.38
2024-03-03T08:03:51.608Z,122165.56
2024-03-03T08:04:56.007Z,148119.16
2024-03-03T08:05:58.798Z,148268.31
2024-03-03T08:07:01.068Z,148419.94
2024-03-03T08:08:05.340Z,148640.78
2024-03-03T08:09:07.533Z,148652.94
2024-03-03T08:10:09.939Z,148893.38
2024-03-03T08:11:12.205Z,149064.66
2024-03-03T08:12:14.419Z,149197.16
2024-03-03T08:13:16.703Z,149435.56
2024-03-03T08:14:18.959Z,149457.41
2024-03-03T08:15:22.001Z,149508.53
2024-03-03T08:16:24.266Z,149615.63
2024-03-03T08:17:26.493Z,149490.25
2024-03-03T08:18:28.734Z,149265.22
2024-03-03T08:19:30.968Z,149552.31
2024-03-03T08:20:33.247Z,149588.84
2024-03-03T08:21:35.450Z,149667.97
2024-03-03T08:22:41.876Z,149620.50
2024-03-03T08:23:44.442Z,149700.84
2024-03-03T08:24:46.650Z,149484.19
2024-03-03T08:25:49.009Z,149581.56
2024-03-03T08:26:51.278Z,149571.84
2024-03-03T08:28:02.474Z,149633.91
2024-03-03T08:29:04.829Z,149732.47
2024-03-03T08:30:10.117Z,149945.56
2024-03-03T08:31:13.032Z,149929.75
2024-03-03T08:32:15.288Z,150039.38
2024-03-03T08:33:17.562Z,150045.47
2024-03-03T08:34:19.796Z,150202.69
2024-03-03T08:35:22.048Z,150173.41
2024-03-03T08:36:24.540Z,150322.13
2024-03-03T08:37:27.492Z,150500.16
2024-03-03T08:38:31.066Z,150675.81
2024-03-03T08:39:33.406Z,150724.66
2024-03-03T08:40:35.709Z,150706.31
2024-03-03T08:41:41.728Z,150717.34
2024-03-03T08:42:43.981Z,150522.13
2024-03-03T08:43:46.661Z,150534.31
2024-03-03T08:44:48.910Z,150617.31
2024-03-03T08:45:51.230Z,150617.31
2024-03-03T08:46:53.550Z,150416.06
2024-03-03T08:47:55.779Z,150470.88
2024-03-03T08:48:58.057Z,150546.47
2024-03-03T08:50:00.263Z,150556.28
2024-03-03T08:51:07.571Z,150519.69
2024-03-03T08:52:10.214Z,150553.84
2024-03-03T08:53:12.412Z,150524.56
2024-03-03T08:54:14.579Z,150325.78
2024-03-03T08:55:17.321Z,150268.50
2024-03-03T08:56:19.644Z,150270.94
2024-03-03T08:57:23.876Z,150205.13
2024-03-03T08:58:27.486Z,150012.59
2024-03-03T08:59:29.734Z,149885.88
2024-03-03T09:00:32.080Z,149677.69
2024-03-03T09:01:34.443Z,149527.97
2024-03-03T09:02:37.154Z,149571.84
2024-03-03T09:03:39.406Z,149576.69
2024-03-03T09:04:41.783Z,149549.88
2024-03-03T09:05:44.011Z,149710.56
2024-03-03T09:06:46.226Z,149705.69
2024-03-03T09:07:48.682Z,149586.41
2024-03-03T09:08:51.387Z,149706.91
2024-03-03T09:09:53.662Z,149885.88
2024-03-03T09:11:02.302Z,149798.25
2024-03-03T09:12:04.908Z,150017.44
2024-03-03T09:13:07.238Z,150241.69
2024-03-03T09:14:09.708Z,150258.75
2024-03-03T09:15:12.026Z,150234.38
2024-03-03T09:16:14.538Z,150212.44
2024-03-03T09:17:16.772Z,150156.34
2024-03-03T09:18:19.053Z,150113.69
2024-03-03T09:19:21.366Z,150033.31
2024-03-03T09:20:23.598Z,150097.88
2024-03-03T09:21:25.820Z,150227.06
2024-03-03T09:22:28.183Z,150241.69
2024-03-03T09:23:33.516Z,150397.75
2024-03-03T09:24:35.759Z,150366.00
2024-03-03T09:25:37.996Z,150214.84
2024-03-03T09:26:41.637Z,150180.69
2024-03-03T09:27:43.990Z,150251.47
2024-03-03T09:28:46.379Z,150251.47
2024-03-03T09:29:48.624Z,150492.84
2024-03-03T09:30:50.889Z,150692.91
2024-03-03T09:31:54.093Z,150683.19
2024-03-03T09:32:56.452Z,150816.22
2024-03-03T09:33:58.805Z,151078.69
2024-03-03T09:35:01.076Z,150998.09
2024-03-03T09:36:03.602Z,151161.75
2024-03-03T09:37:05.965Z,151037.16
2024-03-03T09:38:08.979Z,151006.63
2024-03-03T09:39:11.144Z,150985.91
2024-03-03T09:40:17.771Z,151203.25
2024-03-03T09:41:20.305Z,151079.91
2024-03-03T09:42:22.489Z,151192.28
2024-03-03T09:43:28.842Z,151106.84
2024-03-03T09:44:43.747Z,151020.09
2024-03-03T09:45:49.037Z,151054.25
2024-03-03T09:46:54.086Z,151181.31
2024-03-03T09:47:57.112Z,151000.53
2024-03-03T09:48:59.612Z,151149.56
2024-03-03T09:50:03.639Z,151244.81
2024-03-03T09:51:06.188Z,151337.72
2024-03-03T09:52:13.231Z,151287.63
2024-03-03T09:53:16.452Z,151071.34
2024-03-03T09:54:19.709Z,150868.66
2024-03-03T09:55:23.571Z,151089.72
2024-03-03T09:56:27.739Z,151274.19
2024-03-03T09:57:33.899Z,151261.94
2024-03-03T09:58:36.148Z,151330.34
2024-03-03T09:59:39.384Z,151310.84
2024-03-03T10:00:42.235Z,151486.81
2024-03-03T10:01:52.358Z,151494.13
2024-03-03T10:02:56.894Z,151532.00
2024-03-03T10:04:01.002Z,151499.00
2024-03-03T10:05:05.715Z,151364.56
2024-03-03T10:06:11.631Z,151381.69
2024-03-03T10:07:24.181Z,151638.44
2024-03-03T10:08:28.616Z,151659.19
2024-03-03T10:09:32.487Z,151613.97
2024-03-03T10:10:37.380Z,151358.47
2024-03-03T10:11:42.486Z,151567.50
2024-03-03T10:12:47.561Z,151325.47
2024-03-03T10:13:50.672Z,151386.56
2024-03-03T10:14:56.757Z,151565.00
2024-03-03T10:16:02.373Z,151524.69
2024-03-03T10:17:05.038Z,151538.16
2024-03-03T10:18:09.528Z,151352.34
2024-03-03T10:19:11.876Z,151452.59
2024-03-03T10:20:14.147Z,151347.47
2024-03-03T10:21:16.842Z,151230.16
2024-03-03T10:22:20.508Z,151376.81
2024-03-03T10:23:23.498Z,151467.25
2024-03-03T10:24:27.438Z,151254.63
2024-03-03T10:25:31.447Z,151291.28
2024-03-03T10:26:36.924Z,151288.84
2024-03-03T10:27:42.193Z,151237.47
2024-03-03T10:29:03.899Z,151226.47
2024-03-03T10:30:08.715Z,151288.84
2024-03-03T10:31:13.061Z,151149.56
2024-03-03T10:32:16.122Z,151252.19
2024-03-03T10:33:19.268Z,151093.38
2024-03-03T10:34:24.463Z,150930.97
2024-03-03T10:35:26.689Z,151004.19
2024-03-03T10:36:30.235Z,151043.28
2024-03-03T10:37:32.512Z,150956.59
2024-03-03T10:38:34.691Z,150893.06
2024-03-03T10:39:39.636Z,151088.50
2024-03-03T10:40:45.394Z,151134.88
2024-03-03T10:41:47.589Z,150793.00
2024-03-03T10:42:50.831Z,150811.34
2024-03-03T10:45:16.030Z,151039.59
2024-03-03T10:46:21.825Z,151193.50
2024-03-03T10:47:24.570Z,151155.66
2024-03-03T10:48:26.898Z,151433.03
2024-03-03T10:49:29.674Z,151472.16
2024-03-03T10:50:33.126Z,151643.31
2024-03-03T10:51:36.519Z,151611.53
2024-03-03T10:52:42.568Z,151417.16
2024-03-03T10:53:44.973Z,151319.38
2024-03-03T10:54:47.697Z,151164.19
2024-03-03T10:55:50.345Z,151104.34
2024-03-03T10:56:53.206Z,150956.59
2024-03-03T10:57:57.060Z,150940.72
2024-03-03T10:59:00.384Z,150915.06
2024-03-03T11:00:05.048Z,150783.25
2024-03-03T11:01:08.837Z,150946.84
2024-03-03T11:02:13.531Z,151137.31
2024-03-03T11:03:17.150Z,151225.25
2024-03-03T11:04:20.563Z,151159.31
2024-03-03T11:05:24.350Z,151086.00
2024-03-03T11:06:27.213Z,151313.28
2024-03-03T11:07:30.861Z,151310.84
2024-03-03T11:08:33.700Z,151247.28
2024-03-03T11:09:36.686Z,151264.38
2024-03-03T11:10:39.185Z,151226.47
2024-03-03T11:11:46.310Z,151264.38
2024-03-03T11:12:51.187Z,151227.72
2024-03-03T11:14:13.024Z,151364.56
2024-03-03T11:15:19.908Z,151572.44
2024-03-03T11:16:27.159Z,151584.63
2024-03-03T11:17:33.360Z,151373.16
2024-03-03T11:18:39.136Z,151188.63
2024-03-03T11:19:48.936Z,151208.19
2024-03-03T11:20:56.480Z,151070.13
2024-03-03T11:22:04.084Z,150987.13
2024-03-03T11:23:26.817Z,151160.53
2024-03-03T11:24:31.473Z,151159.31
2024-03-03T11:25:40.544Z,151076.25
2024-03-03T11:26:48.130Z,151310.84
2024-03-03T11:27:57.107Z,151260.72
2024-03-03T11:29:00.516Z,151131.22
2024-03-03T11:30:03.211Z,151029.84
2024-03-03T11:31:05.868Z,151032.28
2024-03-03T11:32:09.632Z,151007.91
2024-03-03T11:33:12.904Z,150685.63
2024-03-03T11:34:16.373Z,150618.53
2024-03-03T11:35:19.678Z,150408.72
2024-03-03T11:36:23.157Z,150329.44
2024-03-03T11:37:27.278Z,150297.75
2024-03-03T11:38:45.770Z,150288.00
2024-03-03T11:39:59.614Z,150251.47
2024-03-03T11:41:02.308Z,149988.22
2024-03-03T11:42:29.312Z,150032.09
2024-03-03T11:43:34.798Z,149902.94
2024-03-03T11:44:37.334Z,149998.00
2024-03-03T11:45:49.117Z,149922.41
2024-03-03T11:46:51.446Z,149927.31
2024-03-03T11:47:53.679Z,149844.50
2024-03-03T11:49:00.605Z,149965.06
2024-03-03T11:50:17.745Z,150080.78
2024-03-03T11:51:27.161Z,149996.78
2024-03-03T11:52:43.215Z,150052.78
2024-03-03T11:53:58.397Z,150027.22
2024-03-03T11:55:00.600Z,150096.66
2024-03-03T11:56:02.790Z,150211.22
2024-03-03T11:57:10.257Z,150231.94
2024-03-03T11:58:19.153Z,150309.91
2024-03-03T11:59:25.927Z,150441.63
2024-03-03T12:00:29.644Z,150472.13
2024-03-03T12:01:35.013Z,150451.41
2024-03-03T12:02:39.582Z,150578.25
2024-03-03T12:03:42.615Z,150645.31
2024-03-03T12:04:47.721Z,150541.63
2024-03-03T12:05:51.152Z,150446.50
2024-03-03T12:06:53.407Z,150397.75
2024-03-03T12:07:57.104Z,150544.03
2024-03-03T12:09:04.112Z,150644.09
2024-03-03T12:10:17.578Z,150668.50
2024-03-03T12:11:20.495Z,150427.03
2024-03-03T12:12:22.716Z,150647.81
2024-03-03T12:13:27.241Z,150536.75
2024-03-03T12:14:30.889Z,150717.34
2024-03-03T12:15:33.113Z,150829.63
2024-03-03T12:16:35.330Z,150763.72
2024-03-03T12:17:38.098Z,150503.81
2024-03-03T12:18:40.279Z,150456.28